sensor_id;sensor_type;location;lat;lon;timestamp;P1;durP1;ratioP1;P2;durP2;ratioP2
23078;SDS011;11707;50.830;4.364;2023-07-13T00:01:48;10.30;;;2.05;;
23078;SDS011;11707;50.830;4.364;2023-07-13T00:04:20;9.15;;;1.67;;
23078;SDS011;11707;50.830;4.364;2023-07-13T00:06:48;12.10;;;2.30;;
23078;SDS011;11707;50.830;4.364;2023-07-13T00:09:15;9.07;;;2.90;;
23078;SDS011;11707;50.830;4.364;2023-07-13T00:11:49;9.48;;;2.25;;
23078;SDS011;11707;50.830;4.364;2023-07-13T00:14:19;12.05;;;2.33;;
23078;SDS011;11707;50.830;4.364;2023-07-13T00:16:47;7.18;;;2.40;;
23078;SDS011;11707;50.830;4.364;2023-07-13T00:19:13;8.23;;;1.90;;
23078;SDS011;11707;50.830;4.364;2023-07-13T00:21:39;10.23;;;2.80;;
23078;SDS011;11707;50.830;4.364;2023-07-13T00:24:07;8.60;;;2.25;;
23078;SDS011;11707;50.830;4.364;2023-07-13T00:26:38;8.48;;;2.25;;
23078;SDS011;11707;50.830;4.364;2023-07-13T00:29:10;10.77;;;2.03;;
23078;SDS011;11707;50.830;4.364;2023-07-13T00:31:36;11.30;;;2.45;;
23078;SDS011;11707;50.830;4.364;2023-07-13T00:34:02;6.57;;;2.00;;
23078;SDS011;11707;50.830;4.364;2023-07-13T00:36:31;5.25;;;1.75;;
23078;SDS011;11707;50.830;4.364;2023-07-13T00:38:59;8.05;;;2.15;;
23078;SDS011;11707;50.830;4.364;2023-07-13T00:41:25;7.65;;;2.30;;
23078;SDS011;11707;50.830;4.364;2023-07-13T00:43:51;9.13;;;1.92;;
23078;SDS011;11707;50.830;4.364;2023-07-13T00:46:32;10.57;;;2.47;;
23078;SDS011;11707;50.830;4.364;2023-07-13T00:49:02;6.80;;;2.67;;
23078;SDS011;11707;50.830;4.364;2023-07-13T00:51:33;9.00;;;2.17;;
23078;SDS011;11707;50.830;4.364;2023-07-13T00:54:05;13.00;;;3.17;;
23078;SDS011;11707;50.830;4.364;2023-07-13T00:56:34;8.93;;;2.33;;
23078;SDS011;11707;50.830;4.364;2023-07-13T00:59:04;7.25;;;2.08;;
23078;SDS011;11707;50.830;4.364;2023-07-13T01:01:33;9.88;;;2.08;;
23078;SDS011;11707;50.830;4.364;2023-07-13T01:04:01;7.55;;;2.20;;
23078;SDS011;11707;50.830;4.364;2023-07-13T01:06:27;8.32;;;2.00;;
23078;SDS011;11707;50.830;4.364;2023-07-13T01:08:53;10.20;;;2.33;;
23078;SDS011;11707;50.830;4.364;2023-07-13T01:11:20;9.48;;;3.00;;
23078;SDS011;11707;50.830;4.364;2023-07-13T01:13:47;8.27;;;2.25;;
23078;SDS011;11707;50.830;4.364;2023-07-13T01:16:21;12.45;;;2.63;;
23078;SDS011;11707;50.830;4.364;2023-07-13T01:18:50;12.48;;;3.10;;
23078;SDS011;11707;50.830;4.364;2023-07-13T01:21:16;10.40;;;2.20;;
23078;SDS011;11707;50.830;4.364;2023-07-13T01:23:42;8.70;;;2.65;;
23078;SDS011;11707;50.830;4.364;2023-07-13T01:26:12;9.18;;;2.38;;
23078;SDS011;11707;50.830;4.364;2023-07-13T01:28:37;10.05;;;2.83;;
23078;SDS011;11707;50.830;4.364;2023-07-13T01:31:03;7.93;;;2.08;;
23078;SDS011;11707;50.830;4.364;2023-07-13T01:33:30;8.65;;;2.85;;
23078;SDS011;11707;50.830;4.364;2023-07-13T01:35:55;9.82;;;2.63;;
23078;SDS011;11707;50.830;4.364;2023-07-13T01:38:22;12.27;;;2.30;;
23078;SDS011;11707;50.830;4.364;2023-07-13T01:40:50;10.77;;;2.50;;
23078;SDS011;11707;50.830;4.364;2023-07-13T01:43:17;8.27;;;2.42;;
23078;SDS011;11707;50.830;4.364;2023-07-13T01:45:46;7.80;;;1.75;;
23078;SDS011;11707;50.830;4.364;2023-07-13T01:48:12;11.50;;;2.90;;
23078;SDS011;11707;50.830;4.364;2023-07-13T01:50:38;11.23;;;3.05;;
23078;SDS011;11707;50.830;4.364;2023-07-13T01:53:04;8.18;;;2.58;;
23078;SDS011;11707;50.830;4.364;2023-07-13T01:55:33;12.52;;;2.47;;
23078;SDS011;11707;50.830;4.364;2023-07-13T01:57:59;12.10;;;2.22;;
23078;SDS011;11707;50.830;4.364;2023-07-13T02:00:24;9.23;;;2.30;;
23078;SDS011;11707;50.830;4.364;2023-07-13T02:02:50;14.02;;;2.88;;
23078;SDS011;11707;50.830;4.364;2023-07-13T02:05:18;9.70;;;2.92;;
23078;SDS011;11707;50.830;4.364;2023-07-13T02:07:44;9.45;;;2.60;;
23078;SDS011;11707;50.830;4.364;2023-07-13T02:10:10;14.35;;;2.72;;
23078;SDS011;11707;50.830;4.364;2023-07-13T02:12:37;12.60;;;3.40;;
23078;SDS011;11707;50.830;4.364;2023-07-13T02:15:03;8.30;;;2.70;;
23078;SDS011;11707;50.830;4.364;2023-07-13T02:17:33;11.15;;;2.63;;
23078;SDS011;11707;50.830;4.364;2023-07-13T02:20:00;8.50;;;2.30;;
23078;SDS011;11707;50.830;4.364;2023-07-13T02:22:25;12.75;;;2.47;;
23078;SDS011;11707;50.830;4.364;2023-07-13T02:24:51;9.23;;;2.35;;
23078;SDS011;11707;50.830;4.364;2023-07-13T02:27:20;11.88;;;3.05;;
23078;SDS011;11707;50.830;4.364;2023-07-13T02:29:46;11.23;;;2.70;;
23078;SDS011;11707;50.830;4.364;2023-07-13T02:32:11;8.95;;;2.22;;
23078;SDS011;11707;50.830;4.364;2023-07-13T02:34:40;11.13;;;2.72;;
23078;SDS011;11707;50.830;4.364;2023-07-13T02:37:09;15.45;;;2.85;;
23078;SDS011;11707;50.830;4.364;2023-07-13T02:39:34;6.80;;;2.60;;
23078;SDS011;11707;50.830;4.364;2023-07-13T02:42:02;14.93;;;2.97;;
23078;SDS011;11707;50.830;4.364;2023-07-13T02:44:28;12.48;;;2.80;;
23078;SDS011;11707;50.830;4.364;2023-07-13T02:46:54;11.60;;;3.10;;
23078;SDS011;11707;50.830;4.364;2023-07-13T02:49:19;9.32;;;3.08;;
23078;SDS011;11707;50.830;4.364;2023-07-13T02:51:45;9.63;;;2.92;;
23078;SDS011;11707;50.830;4.364;2023-07-13T02:54:11;10.35;;;3.03;;
23078;SDS011;11707;50.830;4.364;2023-07-13T02:56:38;13.65;;;3.53;;
23078;SDS011;11707;50.830;4.364;2023-07-13T02:59:05;10.75;;;2.92;;
23078;SDS011;11707;50.830;4.364;2023-07-13T03:01:30;16.83;;;3.38;;
23078;SDS011;11707;50.830;4.364;2023-07-13T03:03:57;10.88;;;3.22;;
23078;SDS011;11707;50.830;4.364;2023-07-13T03:06:23;9.88;;;3.05;;
23078;SDS011;11707;50.830;4.364;2023-07-13T03:08:49;7.72;;;2.55;;
23078;SDS011;11707;50.830;4.364;2023-07-13T03:11:17;11.43;;;3.25;;
23078;SDS011;11707;50.830;4.364;2023-07-13T03:13:44;8.50;;;2.65;;
23078;SDS011;11707;50.830;4.364;2023-07-13T03:16:10;11.98;;;2.47;;
23078;SDS011;11707;50.830;4.364;2023-07-13T03:18:37;12.43;;;3.03;;
23078;SDS011;11707;50.830;4.364;2023-07-13T03:21:02;12.95;;;3.33;;
23078;SDS011;11707;50.830;4.364;2023-07-13T03:23:33;9.80;;;2.42;;
23078;SDS011;11707;50.830;4.364;2023-07-13T03:26:07;12.07;;;2.65;;
23078;SDS011;11707;50.830;4.364;2023-07-13T03:28:34;16.50;;;3.80;;
23078;SDS011;11707;50.830;4.364;2023-07-13T03:31:20;8.65;;;2.90;;
23078;SDS011;11707;50.830;4.364;2023-07-13T03:33:47;11.15;;;3.25;;
23078;SDS011;11707;50.830;4.364;2023-07-13T03:36:17;12.27;;;2.63;;
23078;SDS011;11707;50.830;4.364;2023-07-13T03:38:46;14.13;;;2.90;;
23078;SDS011;11707;50.830;4.364;2023-07-13T03:41:13;13.70;;;3.35;;
23078;SDS011;11707;50.830;4.364;2023-07-13T03:43:39;12.82;;;3.45;;
23078;SDS011;11707;50.830;4.364;2023-07-13T03:46:04;11.10;;;3.33;;
23078;SDS011;11707;50.830;4.364;2023-07-13T03:48:30;15.90;;;3.78;;
23078;SDS011;11707;50.830;4.364;2023-07-13T03:50:55;9.82;;;2.78;;
23078;SDS011;11707;50.830;4.364;2023-07-13T03:53:23;12.13;;;3.38;;
23078;SDS011;11707;50.830;4.364;2023-07-13T03:55:51;13.50;;;4.00;;
23078;SDS011;11707;50.830;4.364;2023-07-13T04:00:52;11.05;;;3.08;;
23078;SDS011;11707;50.830;4.364;2023-07-13T04:03:18;10.95;;;3.10;;
23078;SDS011;11707;50.830;4.364;2023-07-13T04:05:44;11.52;;;2.83;;
23078;SDS011;11707;50.830;4.364;2023-07-13T04:08:10;15.68;;;3.35;;
23078;SDS011;11707;50.830;4.364;2023-07-13T04:10:35;13.10;;;3.15;;
23078;SDS011;11707;50.830;4.364;2023-07-13T04:13:01;12.23;;;3.30;;
23078;SDS011;11707;50.830;4.364;2023-07-13T04:15:30;17.05;;;3.35;;
23078;SDS011;11707;50.830;4.364;2023-07-13T04:17:56;20.90;;;3.60;;
23078;SDS011;11707;50.830;4.364;2023-07-13T04:20:22;14.45;;;3.50;;
23078;SDS011;11707;50.830;4.364;2023-07-13T04:22:49;18.52;;;3.72;;
23078;SDS011;11707;50.830;4.364;2023-07-13T04:25:15;13.88;;;3.20;;
23078;SDS011;11707;50.830;4.364;2023-07-13T04:27:40;17.60;;;4.13;;
23078;SDS011;11707;50.830;4.364;2023-07-13T04:30:07;12.73;;;3.45;;
23078;SDS011;11707;50.830;4.364;2023-07-13T04:32:33;13.20;;;3.53;;
23078;SDS011;11707;50.830;4.364;2023-07-13T04:34:59;13.45;;;3.22;;
23078;SDS011;11707;50.830;4.364;2023-07-13T04:37:25;15.27;;;3.20;;
23078;SDS011;11707;50.830;4.364;2023-07-13T04:39:51;15.73;;;3.70;;
23078;SDS011;11707;50.830;4.364;2023-07-13T04:42:17;10.48;;;2.72;;
23078;SDS011;11707;50.830;4.364;2023-07-13T04:44:50;14.77;;;3.38;;
23078;SDS011;11707;50.830;4.364;2023-07-13T04:47:17;14.25;;;3.53;;
23078;SDS011;11707;50.830;4.364;2023-07-13T04:49:44;19.90;;;4.15;;
23078;SDS011;11707;50.830;4.364;2023-07-13T04:52:12;16.77;;;3.42;;
23078;SDS011;11707;50.830;4.364;2023-07-13T04:54:38;19.95;;;3.30;;
23078;SDS011;11707;50.830;4.364;2023-07-13T04:57:04;19.27;;;4.35;;
23078;SDS011;11707;50.830;4.364;2023-07-13T04:59:33;13.82;;;3.90;;
23078;SDS011;11707;50.830;4.364;2023-07-13T05:01:58;13.50;;;3.30;;
23078;SDS011;11707;50.830;4.364;2023-07-13T05:04:24;23.98;;;4.07;;
23078;SDS011;11707;50.830;4.364;2023-07-13T05:06:50;11.50;;;3.97;;
23078;SDS011;11707;50.830;4.364;2023-07-13T05:09:15;12.15;;;3.33;;
23078;SDS011;11707;50.830;4.364;2023-07-13T05:11:41;13.68;;;3.50;;
23078;SDS011;11707;50.830;4.364;2023-07-13T05:14:08;17.75;;;3.80;;
23078;SDS011;11707;50.830;4.364;2023-07-13T05:16:34;15.63;;;3.45;;
23078;SDS011;11707;50.830;4.364;2023-07-13T05:19:01;17.90;;;4.07;;
23078;SDS011;11707;50.830;4.364;2023-07-13T05:21:30;13.48;;;3.53;;
23078;SDS011;11707;50.830;4.364;2023-07-13T05:23:58;21.90;;;3.90;;
23078;SDS011;11707;50.830;4.364;2023-07-13T05:26:26;15.13;;;3.88;;
23078;SDS011;11707;50.830;4.364;2023-07-13T05:28:52;16.60;;;3.72;;
23078;SDS011;11707;50.830;4.364;2023-07-13T05:31:17;14.57;;;4.28;;
23078;SDS011;11707;50.830;4.364;2023-07-13T05:33:45;16.42;;;4.00;;
23078;SDS011;11707;50.830;4.364;2023-07-13T05:36:11;19.45;;;3.33;;
23078;SDS011;11707;50.830;4.364;2023-07-13T05:38:37;11.05;;;3.42;;
23078;SDS011;11707;50.830;4.364;2023-07-13T05:41:02;19.55;;;4.47;;
23078;SDS011;11707;50.830;4.364;2023-07-13T05:43:28;13.60;;;3.47;;
23078;SDS011;11707;50.830;4.364;2023-07-13T05:45:56;13.77;;;4.30;;
23078;SDS011;11707;50.830;4.364;2023-07-13T05:48:22;16.13;;;3.90;;
23078;SDS011;11707;50.830;4.364;2023-07-13T05:50:48;15.00;;;4.55;;
23078;SDS011;11707;50.830;4.364;2023-07-13T05:53:14;18.75;;;4.00;;
23078;SDS011;11707;50.830;4.364;2023-07-13T05:55:44;16.42;;;4.00;;
23078;SDS011;11707;50.830;4.364;2023-07-13T05:58:16;15.38;;;3.65;;
23078;SDS011;11707;50.830;4.364;2023-07-13T06:00:44;15.30;;;3.30;;
23078;SDS011;11707;50.830;4.364;2023-07-13T06:03:15;14.23;;;3.78;;
23078;SDS011;11707;50.830;4.364;2023-07-13T06:05:41;17.45;;;4.45;;
23078;SDS011;11707;50.830;4.364;2023-07-13T06:08:07;18.10;;;4.78;;
23078;SDS011;11707;50.830;4.364;2023-07-13T06:10:33;20.45;;;4.70;;
23078;SDS011;11707;50.830;4.364;2023-07-13T06:13:00;12.20;;;3.70;;
23078;SDS011;11707;50.830;4.364;2023-07-13T06:15:25;11.73;;;3.85;;
23078;SDS011;11707;50.830;4.364;2023-07-13T06:17:53;17.77;;;4.72;;
23078;SDS011;11707;50.830;4.364;2023-07-13T06:20:19;12.95;;;3.78;;
23078;SDS011;11707;50.830;4.364;2023-07-13T06:22:44;13.50;;;4.15;;
23078;SDS011;11707;50.830;4.364;2023-07-13T06:25:10;19.30;;;4.22;;
23078;SDS011;11707;50.830;4.364;2023-07-13T06:27:36;12.32;;;3.47;;
23078;SDS011;11707;50.830;4.364;2023-07-13T06:30:01;12.63;;;4.07;;
23078;SDS011;11707;50.830;4.364;2023-07-13T06:32:29;11.75;;;3.40;;
23078;SDS011;11707;50.830;4.364;2023-07-13T06:34:55;13.60;;;3.83;;
23078;SDS011;11707;50.830;4.364;2023-07-13T06:37:21;8.93;;;3.00;;
23078;SDS011;11707;50.830;4.364;2023-07-13T06:39:46;19.15;;;4.18;;
23078;SDS011;11707;50.830;4.364;2023-07-13T06:42:17;18.25;;;4.03;;
23078;SDS011;11707;50.830;4.364;2023-07-13T06:44:42;16.40;;;3.83;;
23078;SDS011;11707;50.830;4.364;2023-07-13T06:47:08;18.02;;;3.97;;
23078;SDS011;11707;50.830;4.364;2023-07-13T06:49:38;19.50;;;4.38;;
23078;SDS011;11707;50.830;4.364;2023-07-13T06:52:04;17.05;;;3.80;;
23078;SDS011;11707;50.830;4.364;2023-07-13T06:54:30;16.38;;;4.18;;
23078;SDS011;11707;50.830;4.364;2023-07-13T06:56:56;26.35;;;4.70;;
23078;SDS011;11707;50.830;4.364;2023-07-13T06:59:21;18.33;;;4.57;;
23078;SDS011;11707;50.830;4.364;2023-07-13T07:01:47;14.52;;;3.35;;
23078;SDS011;11707;50.830;4.364;2023-07-13T07:04:13;11.82;;;3.85;;
23078;SDS011;11707;50.830;4.364;2023-07-13T07:06:38;15.88;;;4.72;;
23078;SDS011;11707;50.830;4.364;2023-07-13T07:09:04;19.85;;;3.92;;
23078;SDS011;11707;50.830;4.364;2023-07-13T07:11:29;17.42;;;4.43;;
23078;SDS011;11707;50.830;4.364;2023-07-13T07:13:55;16.55;;;3.15;;
23078;SDS011;11707;50.830;4.364;2023-07-13T07:16:21;17.48;;;3.72;;
23078;SDS011;11707;50.830;4.364;2023-07-13T07:18:47;12.52;;;3.53;;
23078;SDS011;11707;50.830;4.364;2023-07-13T07:21:13;19.13;;;4.60;;
23078;SDS011;11707;50.830;4.364;2023-07-13T07:23:39;10.90;;;3.65;;
23078;SDS011;11707;50.830;4.364;2023-07-13T07:26:05;14.38;;;3.42;;
23078;SDS011;11707;50.830;4.364;2023-07-13T07:28:36;17.73;;;4.22;;
23078;SDS011;11707;50.830;4.364;2023-07-13T07:31:02;11.65;;;3.20;;
23078;SDS011;11707;50.830;4.364;2023-07-13T07:33:28;13.55;;;3.63;;
23078;SDS011;11707;50.830;4.364;2023-07-13T07:35:56;14.40;;;3.17;;
23078;SDS011;11707;50.830;4.364;2023-07-13T07:38:21;14.70;;;3.05;;
23078;SDS011;11707;50.830;4.364;2023-07-13T07:40:47;17.00;;;3.45;;
23078;SDS011;11707;50.830;4.364;2023-07-13T07:43:13;9.32;;;3.00;;
23078;SDS011;11707;50.830;4.364;2023-07-13T07:45:39;10.68;;;3.08;;
23078;SDS011;11707;50.830;4.364;2023-07-13T07:48:05;10.07;;;3.50;;
23078;SDS011;11707;50.830;4.364;2023-07-13T07:50:31;12.13;;;3.20;;
23078;SDS011;11707;50.830;4.364;2023-07-13T07:53:00;10.27;;;2.80;;
23078;SDS011;11707;50.830;4.364;2023-07-13T07:55:27;10.23;;;2.85;;
23078;SDS011;11707;50.830;4.364;2023-07-13T07:57:53;10.40;;;3.13;;
23078;SDS011;11707;50.830;4.364;2023-07-13T08:00:19;11.68;;;3.00;;
23078;SDS011;11707;50.830;4.364;2023-07-13T08:02:44;11.10;;;3.30;;
23078;SDS011;11707;50.830;4.364;2023-07-13T08:05:13;18.40;;;3.65;;
23078;SDS011;11707;50.830;4.364;2023-07-13T08:07:41;12.68;;;4.03;;
23078;SDS011;11707;50.830;4.364;2023-07-13T08:10:09;12.23;;;3.00;;
23078;SDS011;11707;50.830;4.364;2023-07-13T08:12:35;14.02;;;4.32;;
23078;SDS011;11707;50.830;4.364;2023-07-13T08:15:02;13.45;;;3.20;;
23078;SDS011;11707;50.830;4.364;2023-07-13T08:17:29;14.50;;;3.75;;
23078;SDS011;11707;50.830;4.364;2023-07-13T08:19:54;10.80;;;2.83;;
23078;SDS011;11707;50.830;4.364;2023-07-13T08:22:20;9.93;;;3.10;;
23078;SDS011;11707;50.830;4.364;2023-07-13T08:24:45;15.40;;;3.20;;
23078;SDS011;11707;50.830;4.364;2023-07-13T08:27:12;10.48;;;3.13;;
23078;SDS011;11707;50.830;4.364;2023-07-13T08:29:38;13.52;;;3.15;;
23078;SDS011;11707;50.830;4.364;2023-07-13T08:32:05;8.98;;;2.67;;
23078;SDS011;11707;50.830;4.364;2023-07-13T08:34:34;11.52;;;2.70;;
23078;SDS011;11707;50.830;4.364;2023-07-13T08:37:00;11.05;;;2.80;;
23078;SDS011;11707;50.830;4.364;2023-07-13T08:39:29;11.48;;;2.58;;
23078;SDS011;11707;50.830;4.364;2023-07-13T08:41:58;10.10;;;2.88;;
23078;SDS011;11707;50.830;4.364;2023-07-13T08:44:37;10.38;;;3.03;;
23078;SDS011;11707;50.830;4.364;2023-07-13T08:47:14;10.20;;;3.47;;
23078;SDS011;11707;50.830;4.364;2023-07-13T08:49:41;11.88;;;2.70;;
23078;SDS011;11707;50.830;4.364;2023-07-13T08:52:18;12.18;;;3.35;;
23078;SDS011;11707;50.830;4.364;2023-07-13T08:55:04;14.98;;;4.20;;
23078;SDS011;11707;50.830;4.364;2023-07-13T08:57:42;13.77;;;3.30;;
23078;SDS011;11707;50.830;4.364;2023-07-13T09:00:11;11.60;;;3.40;;
23078;SDS011;11707;50.830;4.364;2023-07-13T09:05:13;12.82;;;2.67;;
23078;SDS011;11707;50.830;4.364;2023-07-13T09:07:53;12.43;;;3.42;;
23078;SDS011;11707;50.830;4.364;2023-07-13T09:10:47;8.02;;;2.60;;
23078;SDS011;11707;50.830;4.364;2023-07-13T09:16:08;10.27;;;2.40;;
23078;SDS011;11707;50.830;4.364;2023-07-13T09:18:41;14.88;;;3.05;;
23078;SDS011;11707;50.830;4.364;2023-07-13T09:23:35;13.15;;;2.95;;
23078;SDS011;11707;50.830;4.364;2023-07-13T09:26:20;8.93;;;2.45;;
23078;SDS011;11707;50.830;4.364;2023-07-13T09:28:48;11.73;;;2.40;;
23078;SDS011;11707;50.830;4.364;2023-07-13T09:31:33;10.90;;;2.47;;
23078;SDS011;11707;50.830;4.364;2023-07-13T09:34:13;8.40;;;2.75;;
23078;SDS011;11707;50.830;4.364;2023-07-13T09:36:39;13.15;;;2.78;;
23078;SDS011;11707;50.830;4.364;2023-07-13T09:41:48;9.03;;;2.53;;
23078;SDS011;11707;50.830;4.364;2023-07-13T09:44:35;6.88;;;2.03;;
23078;SDS011;11707;50.830;4.364;2023-07-13T09:47:03;9.00;;;2.35;;
23078;SDS011;11707;50.830;4.364;2023-07-13T09:49:43;12.02;;;3.30;;
23078;SDS011;11707;50.830;4.364;2023-07-13T09:52:15;9.75;;;2.05;;
23078;SDS011;11707;50.830;4.364;2023-07-13T09:57:14;10.32;;;1.83;;
23078;SDS011;11707;50.830;4.364;2023-07-13T09:59:44;11.75;;;1.92;;
23078;SDS011;11707;50.830;4.364;2023-07-13T10:02:23;5.53;;;2.25;;
23078;SDS011;11707;50.830;4.364;2023-07-13T10:05:02;9.98;;;2.35;;
23078;SDS011;11707;50.830;4.364;2023-07-13T10:07:30;15.77;;;2.60;;
23078;SDS011;11707;50.830;4.364;2023-07-13T10:09:57;8.27;;;2.40;;
23078;SDS011;11707;50.830;4.364;2023-07-13T10:12:26;6.03;;;1.73;;
23078;SDS011;11707;50.830;4.364;2023-07-13T10:14:56;12.18;;;1.98;;
23078;SDS011;11707;50.830;4.364;2023-07-13T10:17:31;6.85;;;2.38;;
23078;SDS011;11707;50.830;4.364;2023-07-13T10:20:06;8.93;;;2.23;;
23078;SDS011;11707;50.830;4.364;2023-07-13T10:22:39;11.68;;;2.00;;
23078;SDS011;11707;50.830;4.364;2023-07-13T10:25:16;7.13;;;1.90;;
23078;SDS011;11707;50.830;4.364;2023-07-13T10:27:43;10.30;;;2.58;;
23078;SDS011;11707;50.830;4.364;2023-07-13T10:30:15;7.47;;;2.28;;
23078;SDS011;11707;50.830;4.364;2023-07-13T10:33:02;8.75;;;2.95;;
23078;SDS011;11707;50.830;4.364;2023-07-13T10:35:34;7.90;;;2.17;;
23078;SDS011;11707;50.830;4.364;2023-07-13T10:38:06;6.32;;;1.45;;
23078;SDS011;11707;50.830;4.364;2023-07-13T10:43:04;8.45;;;2.33;;
23078;SDS011;11707;50.830;4.364;2023-07-13T10:45:35;10.10;;;2.35;;
23078;SDS011;11707;50.830;4.364;2023-07-13T10:48:02;6.78;;;1.90;;
23078;SDS011;11707;50.830;4.364;2023-07-13T10:50:30;5.25;;;1.90;;
23078;SDS011;11707;50.830;4.364;2023-07-13T10:53:30;8.50;;;2.47;;
23078;SDS011;11707;50.830;4.364;2023-07-13T10:58:23;6.80;;;1.70;;
23078;SDS011;11707;50.830;4.364;2023-07-13T11:03:59;6.93;;;2.10;;
23078;SDS011;11707;50.830;4.364;2023-07-13T11:08:54;9.45;;;1.88;;
23078;SDS011;11707;50.830;4.364;2023-07-13T11:18:45;11.85;;;2.08;;
23078;SDS011;11707;50.830;4.364;2023-07-13T11:21:31;7.25;;;2.53;;
23078;SDS011;11707;50.830;4.364;2023-07-13T11:26:38;7.60;;;2.20;;
23078;SDS011;11707;50.830;4.364;2023-07-13T11:29:33;6.85;;;1.70;;
23078;SDS011;11707;50.830;4.364;2023-07-13T11:32:20;6.50;;;1.40;;
23078;SDS011;11707;50.830;4.364;2023-07-13T11:34:51;7.03;;;1.45;;
23078;SDS011;11707;50.830;4.364;2023-07-13T11:37:19;7.18;;;1.80;;
23078;SDS011;11707;50.830;4.364;2023-07-13T11:39:46;8.57;;;1.60;;
23078;SDS011;11707;50.830;4.364;2023-07-13T11:42:17;10.88;;;1.98;;
23078;SDS011;11707;50.830;4.364;2023-07-13T11:44:46;6.03;;;2.50;;
23078;SDS011;11707;50.830;4.364;2023-07-13T11:47:22;7.63;;;1.80;;
23078;SDS011;11707;50.830;4.364;2023-07-13T11:49:49;6.07;;;1.83;;
23078;SDS011;11707;50.830;4.364;2023-07-13T11:52:27;12.07;;;2.35;;
23078;SDS011;11707;50.830;4.364;2023-07-13T11:55:03;7.13;;;1.95;;
23078;SDS011;11707;50.830;4.364;2023-07-13T11:57:50;6.53;;;2.47;;
23078;SDS011;11707;50.830;4.364;2023-07-13T12:00:22;5.25;;;1.75;;
23078;SDS011;11707;50.830;4.364;2023-07-13T12:02:52;3.70;;;1.65;;
23078;SDS011;11707;50.830;4.364;2023-07-13T12:05:20;5.55;;;1.80;;
23078;SDS011;11707;50.830;4.364;2023-07-13T12:07:47;5.57;;;2.38;;
23078;SDS011;11707;50.830;4.364;2023-07-13T12:10:18;3.83;;;1.30;;
23078;SDS011;11707;50.830;4.364;2023-07-13T12:12:57;4.03;;;1.50;;
23078;SDS011;11707;50.830;4.364;2023-07-13T12:15:32;7.07;;;2.10;;
23078;SDS011;11707;50.830;4.364;2023-07-13T12:18:09;6.88;;;1.70;;
23078;SDS011;11707;50.830;4.364;2023-07-13T12:20:49;4.53;;;1.70;;
23078;SDS011;11707;50.830;4.364;2023-07-13T12:25:58;4.10;;;1.35;;
23078;SDS011;11707;50.830;4.364;2023-07-13T12:28:36;3.60;;;1.15;;
23078;SDS011;11707;50.830;4.364;2023-07-13T12:31:04;3.17;;;1.15;;
23078;SDS011;11707;50.830;4.364;2023-07-13T12:33:32;4.13;;;1.00;;
23078;SDS011;11707;50.830;4.364;2023-07-13T12:36:02;6.93;;;1.70;;
23078;SDS011;11707;50.830;4.364;2023-07-13T12:38:31;4.75;;;1.50;;
23078;SDS011;11707;50.830;4.364;2023-07-13T12:40:57;4.10;;;2.00;;
23078;SDS011;11707;50.830;4.364;2023-07-13T12:43:23;7.15;;;1.95;;
23078;SDS011;11707;50.830;4.364;2023-07-13T12:45:58;4.80;;;2.00;;
23078;SDS011;11707;50.830;4.364;2023-07-13T12:48:24;9.50;;;2.60;;
23078;SDS011;11707;50.830;4.364;2023-07-13T12:50:51;8.40;;;2.83;;
23078;SDS011;11707;50.830;4.364;2023-07-13T12:53:23;7.70;;;2.70;;
23078;SDS011;11707;50.830;4.364;2023-07-13T12:55:59;6.10;;;3.35;;
23078;SDS011;11707;50.830;4.364;2023-07-13T12:58:38;6.05;;;2.85;;
23078;SDS011;11707;50.830;4.364;2023-07-13T13:01:11;10.05;;;3.30;;
23078;SDS011;11707;50.830;4.364;2023-07-13T13:03:48;6.13;;;3.15;;
23078;SDS011;11707;50.830;4.364;2023-07-13T13:08:48;8.43;;;2.55;;
23078;SDS011;11707;50.830;4.364;2023-07-13T13:11:16;8.70;;;2.35;;
23078;SDS011;11707;50.830;4.364;2023-07-13T13:13:42;6.95;;;2.10;;
23078;SDS011;11707;50.830;4.364;2023-07-13T13:16:22;3.15;;;1.85;;
23078;SDS011;11707;50.830;4.364;2023-07-13T13:18:48;7.22;;;2.03;;
23078;SDS011;11707;50.830;4.364;2023-07-13T13:21:15;7.72;;;2.20;;
23078;SDS011;11707;50.830;4.364;2023-07-13T13:23:41;5.30;;;2.00;;
23078;SDS011;11707;50.830;4.364;2023-07-13T13:26:10;8.77;;;2.08;;
23078;SDS011;11707;50.830;4.364;2023-07-13T13:28:39;3.83;;;1.70;;
23078;SDS011;11707;50.830;4.364;2023-07-13T13:31:04;8.63;;;2.45;;
23078;SDS011;11707;50.830;4.364;2023-07-13T13:33:35;5.50;;;2.00;;
23078;SDS011;11707;50.830;4.364;2023-07-13T13:36:01;8.07;;;2.20;;
23078;SDS011;11707;50.830;4.364;2023-07-13T13:38:37;7.32;;;2.10;;
23078;SDS011;11707;50.830;4.364;2023-07-13T13:41:02;8.90;;;2.58;;
23078;SDS011;11707;50.830;4.364;2023-07-13T13:43:31;4.30;;;2.22;;
23078;SDS011;11707;50.830;4.364;2023-07-13T13:45:57;5.40;;;1.52;;
23078;SDS011;11707;50.830;4.364;2023-07-13T13:48:35;7.13;;;2.65;;
23078;SDS011;11707;50.830;4.364;2023-07-13T13:51:05;6.68;;;1.65;;
23078;SDS011;11707;50.830;4.364;2023-07-13T13:53:44;2.30;;;1.27;;
23078;SDS011;11707;50.830;4.364;2023-07-13T13:56:11;5.13;;;1.85;;
23078;SDS011;11707;50.830;4.364;2023-07-13T13:58:37;5.72;;;2.00;;
23078;SDS011;11707;50.830;4.364;2023-07-13T14:01:03;5.65;;;1.63;;
23078;SDS011;11707;50.830;4.364;2023-07-13T14:03:35;5.53;;;1.75;;
23078;SDS011;11707;50.830;4.364;2023-07-13T14:06:01;3.42;;;1.40;;
23078;SDS011;11707;50.830;4.364;2023-07-13T14:08:26;3.80;;;1.52;;
23078;SDS011;11707;50.830;4.364;2023-07-13T14:10:55;9.55;;;2.10;;
23078;SDS011;11707;50.830;4.364;2023-07-13T14:14:05;4.90;;;1.58;;
23078;SDS011;11707;50.830;4.364;2023-07-13T14:16:17;6.30;;;2.05;;
23078;SDS011;11707;50.830;4.364;2023-07-13T14:18:46;3.75;;;1.40;;
23078;SDS011;11707;50.830;4.364;2023-07-13T14:21:21;4.63;;;1.75;;
23078;SDS011;11707;50.830;4.364;2023-07-13T14:23:48;7.10;;;2.05;;
23078;SDS011;11707;50.830;4.364;2023-07-13T14:26:18;4.78;;;1.70;;
23078;SDS011;11707;50.830;4.364;2023-07-13T14:28:56;4.95;;;1.70;;
23078;SDS011;11707;50.830;4.364;2023-07-13T14:31:23;10.73;;;4.22;;
23078;SDS011;11707;50.830;4.364;2023-07-13T14:33:50;4.07;;;2.42;;
23078;SDS011;11707;50.830;4.364;2023-07-13T14:36:40;3.85;;;1.70;;
23078;SDS011;11707;50.830;4.364;2023-07-13T14:39:14;4.63;;;1.90;;
23078;SDS011;11707;50.830;4.364;2023-07-13T14:41:41;4.65;;;1.70;;
23078;SDS011;11707;50.830;4.364;2023-07-13T14:44:14;4.80;;;1.35;;
23078;SDS011;11707;50.830;4.364;2023-07-13T14:51:54;6.88;;;1.70;;
23078;SDS011;11707;50.830;4.364;2023-07-13T14:54:22;3.50;;;1.23;;
23078;SDS011;11707;50.830;4.364;2023-07-13T14:56:50;2.72;;;1.30;;
23078;SDS011;11707;50.830;4.364;2023-07-13T14:59:19;3.03;;;1.40;;
23078;SDS011;11707;50.830;4.364;2023-07-13T15:01:45;4.75;;;2.35;;
23078;SDS011;11707;50.830;4.364;2023-07-13T15:04:12;4.80;;;1.88;;
23078;SDS011;11707;50.830;4.364;2023-07-13T15:06:54;4.57;;;1.80;;
23078;SDS011;11707;50.830;4.364;2023-07-13T15:09:25;4.38;;;2.00;;
23078;SDS011;11707;50.830;4.364;2023-07-13T15:11:52;6.40;;;1.90;;
23078;SDS011;11707;50.830;4.364;2023-07-13T15:14:19;5.05;;;2.30;;
23078;SDS011;11707;50.830;4.364;2023-07-13T15:16:48;6.30;;;1.90;;
23078;SDS011;11707;50.830;4.364;2023-07-13T15:19:16;3.83;;;1.98;;
23078;SDS011;11707;50.830;4.364;2023-07-13T15:21:43;3.92;;;1.42;;
23078;SDS011;11707;50.830;4.364;2023-07-13T15:24:10;4.78;;;1.58;;
23078;SDS011;11707;50.830;4.364;2023-07-13T15:26:36;5.40;;;1.52;;
23078;SDS011;11707;50.830;4.364;2023-07-13T15:29:03;5.20;;;1.55;;
23078;SDS011;11707;50.830;4.364;2023-07-13T15:31:29;4.35;;;1.20;;
23078;SDS011;11707;50.830;4.364;2023-07-13T15:33:57;2.92;;;1.35;;
23078;SDS011;11707;50.830;4.364;2023-07-13T15:36:24;5.40;;;1.60;;
23078;SDS011;11707;50.830;4.364;2023-07-13T15:38:52;5.05;;;1.40;;